Terminal Aerodrome Forecast
Issued by NWS

Home | Current Version | Previous Version | Text Only | Print | Product List | Glossary On
Versions: 1 2 3 4 5 6 7 8 9 10 11 12 13 14 15
000
FTUS46 KMTR 031135
TAFOAK
TAF
KOAK 031135Z 0312/0418 32007KT P6SM OVC007
     FM031700 28007KT P6SM FEW008 SCT200
     FM032100 29012KT P6SM SCT200
     FM040500 30006KT P6SM FEW012
     FM040700 31005KT P6SM BKN010
     FM041700 29006KT P6SM SCT015=

USA.gov is the U.S. government's official web portal to all federal, state and local government web resources and services.